createdAt,value
2023-05-04T00:02:10.179Z,2.88
2023-05-04T00:04:37.081Z,2.78
2023-05-04T00:07:03.802Z,2.60
2023-05-04T00:09:31.634Z,2.55
2023-05-04T00:11:58.431Z,2.75
2023-05-04T00:14:25.119Z,2.58
2023-05-04T00:16:52.587Z,2.50
2023-05-04T00:19:19.486Z,2.50
2023-05-04T00:21:46.404Z,2.60
2023-05-04T00:24:13.082Z,3.38
2023-05-04T00:26:39.947Z,2.60
2023-05-04T00:29:06.656Z,3.25
2023-05-04T00:31:33.402Z,2.45
2023-05-04T00:34:00.106Z,2.85
2023-05-04T00:36:26.760Z,2.67
2023-05-04T00:38:54.942Z,2.95
2023-05-04T00:41:22.525Z,2.65
2023-05-04T00:43:49.686Z,2.47
2023-05-04T00:46:16.906Z,2.83
2023-05-04T00:48:46.581Z,2.80
2023-05-04T00:51:14.182Z,3.25
2023-05-04T00:53:41.259Z,3.10
2023-05-04T00:56:08.638Z,3.00
2023-05-04T00:58:35.764Z,2.90
2023-05-04T01:01:03.891Z,2.63
2023-05-04T01:03:32.204Z,3.10
2023-05-04T01:06:17.517Z,2.60
2023-05-04T01:08:57.791Z,2.83
2023-05-04T01:11:35.852Z,3.05
2023-05-04T01:14:02.852Z,2.80
2023-05-04T01:16:29.796Z,2.90
2023-05-04T01:18:56.528Z,3.17
2023-05-04T01:21:23.259Z,2.78
2023-05-04T01:23:50.445Z,3.10
2023-05-04T01:26:25.357Z,2.97
2023-05-04T01:29:08.821Z,3.33
2023-05-04T01:31:37.807Z,2.85
2023-05-04T01:34:06.483Z,3.50
2023-05-04T01:36:33.946Z,3.20
2023-05-04T01:39:00.678Z,3.03
2023-05-04T01:41:27.382Z,3.42
2023-05-04T01:43:56.712Z,3.20
2023-05-04T01:46:26.285Z,3.38
2023-05-04T01:48:53.120Z,2.90
2023-05-04T01:51:22.420Z,2.83
2023-05-04T01:53:50.558Z,3.35
2023-05-04T01:56:17.460Z,3.17
2023-05-04T01:58:44.792Z,2.95
2023-05-04T02:01:11.745Z,3.83
2023-05-04T02:03:38.507Z,3.20
2023-05-04T02:06:05.379Z,3.00
2023-05-04T02:08:32.185Z,3.60
2023-05-04T02:10:58.951Z,3.08
2023-05-04T02:13:25.691Z,3.45
2023-05-04T02:15:52.442Z,3.15
2023-05-04T02:18:19.240Z,3.50
2023-05-04T02:20:46.141Z,3.83
2023-05-04T02:23:14.390Z,3.40
2023-05-04T02:25:43.817Z,3.67
2023-05-04T02:28:10.603Z,3.22
2023-05-04T02:30:37.457Z,3.45
2023-05-04T02:33:04.370Z,3.40
2023-05-04T02:35:31.218Z,3.30
2023-05-04T02:37:57.995Z,3.53
2023-05-04T02:40:24.710Z,3.60
2023-05-04T02:42:51.494Z,3.65
2023-05-04T02:45:18.295Z,3.85
2023-05-04T02:47:45.008Z,3.15
2023-05-04T02:50:11.794Z,3.90
2023-05-04T02:52:38.541Z,4.45
2023-05-04T02:55:06.662Z,4.28
2023-05-04T02:57:33.498Z,3.45
2023-05-04T03:00:00.126Z,3.45
2023-05-04T03:02:26.879Z,3.60
2023-05-04T03:04:53.784Z,3.88
2023-05-04T03:07:20.458Z,3.88
2023-05-04T03:09:48.044Z,3.58
2023-05-04T03:12:14.942Z,3.35
2023-05-04T03:14:42.563Z,3.58
2023-05-04T03:17:09.299Z,4.07
2023-05-04T03:19:36.843Z,3.85
2023-05-04T03:22:04.602Z,3.72
2023-05-04T03:24:31.477Z,3.65
2023-05-04T03:26:58.608Z,3.90
2023-05-04T03:29:26.319Z,3.83
2023-05-04T03:31:54.741Z,4.10
2023-05-04T03:34:21.813Z,4.45
2023-05-04T03:36:52.613Z,3.53
2023-05-04T03:39:19.419Z,4.13
2023-05-04T03:41:46.530Z,3.70
2023-05-04T03:44:13.352Z,4.72
2023-05-04T03:46:40.188Z,4.28
2023-05-04T03:49:07.115Z,4.30
2023-05-04T03:51:33.768Z,4.20
2023-05-04T03:54:01.733Z,4.30
2023-05-04T03:56:28.399Z,4.22
2023-05-04T03:58:57.150Z,3.95
2023-05-04T04:01:27.808Z,3.83
2023-05-04T04:03:54.614Z,3.80
2023-05-04T04:06:22.395Z,3.92
2023-05-04T04:08:49.094Z,3.88
2023-05-04T04:11:15.839Z,3.95
2023-05-04T04:13:42.472Z,4.60
2023-05-04T04:16:09.195Z,4.40
2023-05-04T04:18:35.855Z,3.80
2023-05-04T04:21:03.411Z,3.90
2023-05-04T04:23:30.095Z,3.70
2023-05-04T04:25:56.712Z,3.75
2023-05-04T04:28:23.425Z,3.53
2023-05-04T04:30:50.144Z,4.68
2023-05-04T04:33:16.983Z,3.92
2023-05-04T04:35:44.107Z,4.38
2023-05-04T04:38:10.885Z,4.07
2023-05-04T04:40:37.571Z,4.30
2023-05-04T04:43:04.602Z,4.18
2023-05-04T04:45:32.534Z,4.32
2023-05-04T04:48:00.971Z,4.40
2023-05-04T04:50:28.998Z,3.92
2023-05-04T04:52:56.243Z,3.95
2023-05-04T04:55:25.769Z,3.78
2023-05-04T04:57:52.958Z,4.13
2023-05-04T05:00:19.790Z,4.05
2023-05-04T05:02:46.616Z,4.15
2023-05-04T05:05:13.729Z,4.63
2023-05-04T05:07:40.435Z,4.00
2023-05-04T05:10:08.556Z,3.80
2023-05-04T05:12:35.629Z,3.88
2023-05-04T05:15:04.374Z,3.70
2023-05-04T05:17:31.403Z,3.70
2023-05-04T05:19:58.134Z,3.55
2023-05-04T05:22:24.994Z,4.13
2023-05-04T05:24:51.840Z,3.85
2023-05-04T05:27:18.503Z,3.97
2023-05-04T05:29:45.537Z,3.75
2023-05-04T05:32:12.215Z,4.53
2023-05-04T05:34:39.023Z,3.70
2023-05-04T05:37:05.788Z,4.10
2023-05-04T05:39:32.514Z,4.35
2023-05-04T05:41:59.328Z,3.58
2023-05-04T05:44:25.999Z,4.63
2023-05-04T05:46:52.637Z,3.67
2023-05-04T05:49:19.454Z,3.85
2023-05-04T05:51:46.132Z,4.43
2023-05-04T05:54:12.819Z,4.32
2023-05-04T05:56:39.540Z,3.92
2023-05-04T05:59:06.379Z,3.75
2023-05-04T06:01:33.306Z,4.47
2023-05-04T06:04:00.167Z,4.10
2023-05-04T06:06:27.168Z,4.05
2023-05-04T06:08:53.843Z,3.78
2023-05-04T06:11:21.427Z,4.30
2023-05-04T06:13:48.190Z,4.07
2023-05-04T06:16:14.928Z,3.67
2023-05-04T06:18:41.686Z,4.20
2023-05-04T06:21:08.748Z,3.78
2023-05-04T06:23:35.447Z,3.92
2023-05-04T06:26:02.693Z,3.70
2023-05-04T06:28:29.292Z,3.50
2023-05-04T06:30:56.650Z,3.70
2023-05-04T06:33:23.339Z,4.03
2023-05-04T06:35:50.857Z,3.65
2023-05-04T06:38:17.549Z,3.80
2023-05-04T06:40:44.202Z,4.07
2023-05-04T06:43:10.968Z,3.72
2023-05-04T06:45:39.383Z,3.13
2023-05-04T06:48:07.719Z,3.65
2023-05-04T06:50:35.808Z,3.40
2023-05-04T06:53:04.359Z,3.10
2023-05-04T06:55:31.762Z,3.72
2023-05-04T06:57:58.521Z,3.42
2023-05-04T07:00:25.482Z,3.30
2023-05-04T07:02:53.393Z,3.00
2023-05-04T07:05:23.273Z,3.00
2023-05-04T07:07:51.396Z,3.00
2023-05-04T07:10:19.359Z,3.17
2023-05-04T07:12:46.664Z,3.22
2023-05-04T07:15:13.540Z,3.42
2023-05-04T07:17:41.048Z,2.83
2023-05-04T07:20:08.396Z,2.80
2023-05-04T07:22:35.187Z,2.90
2023-05-04T07:25:01.906Z,3.28
2023-05-04T07:27:28.565Z,2.95
2023-05-04T07:29:55.684Z,3.45
2023-05-04T07:32:22.496Z,3.47
2023-05-04T07:34:49.355Z,3.03
2023-05-04T07:37:16.095Z,2.75
2023-05-04T07:39:42.880Z,3.60
2023-05-04T07:42:11.549Z,3.50
2023-05-04T07:44:38.374Z,2.97
2023-05-04T07:47:05.361Z,2.88
2023-05-04T07:49:32.293Z,2.85
2023-05-04T07:51:59.387Z,3.53
2023-05-04T07:54:26.230Z,3.05
2023-05-04T07:56:52.904Z,2.83
2023-05-04T07:59:19.798Z,3.10
2023-05-04T08:01:47.220Z,2.75
2023-05-04T08:04:14.299Z,3.10
2023-05-04T08:06:41.643Z,2.83
2023-05-04T08:09:09.076Z,3.33
2023-05-04T08:11:35.870Z,3.17
2023-05-04T08:14:02.671Z,3.13
2023-05-04T08:16:29.429Z,3.28
2023-05-04T08:19:01.119Z,3.35
2023-05-04T08:21:27.879Z,3.42
2023-05-04T08:23:54.559Z,3.25
2023-05-04T08:26:21.253Z,2.90
2023-05-04T08:28:48.308Z,3.70
2023-05-04T08:31:15.787Z,3.45
2023-05-04T08:33:42.511Z,3.22
2023-05-04T08:36:09.492Z,3.13
2023-05-04T08:38:36.401Z,3.28
2023-05-04T08:41:06.686Z,3.38
2023-05-04T08:43:37.142Z,2.95
2023-05-04T08:46:04.681Z,2.95
2023-05-04T08:48:34.749Z,3.00
2023-05-04T08:51:03.471Z,3.60
2023-05-04T08:53:31.510Z,3.05
2023-05-04T08:56:03.915Z,2.95
2023-05-04T08:58:32.221Z,2.90
2023-05-04T09:01:01.132Z,3.10
2023-05-04T09:03:29.745Z,3.28
2023-05-04T09:05:58.009Z,2.72
2023-05-04T09:08:24.768Z,3.35
2023-05-04T09:10:51.735Z,3.17
2023-05-04T09:13:18.482Z,3.17
2023-05-04T09:15:58.738Z,3.20
2023-05-04T09:18:36.933Z,3.10
2023-05-04T09:21:03.739Z,3.10
2023-05-04T09:23:30.642Z,3.40
2023-05-04T09:25:57.355Z,3.25
2023-05-04T09:28:39.005Z,3.17
2023-05-04T09:31:07.727Z,3.03
2023-05-04T09:33:35.542Z,3.08
2023-05-04T09:36:21.914Z,3.10
2023-05-04T09:38:48.950Z,3.33
2023-05-04T09:41:15.981Z,3.42
2023-05-04T09:43:44.776Z,3.30
2023-05-04T09:46:18.414Z,3.00
2023-05-04T09:48:58.626Z,3.17
2023-05-04T09:51:29.498Z,3.58
2023-05-04T09:54:01.385Z,3.15
2023-05-04T09:56:38.546Z,3.15
2023-05-04T09:59:05.916Z,3.05
2023-05-04T10:01:32.886Z,3.42
2023-05-04T10:03:59.571Z,3.15
2023-05-04T10:06:30.223Z,3.28
2023-05-04T10:08:59.710Z,3.33
2023-05-04T10:11:26.620Z,2.90
2023-05-04T10:13:56.923Z,2.90
2023-05-04T10:16:37.102Z,2.92
2023-05-04T10:19:22.712Z,3.38
2023-05-04T10:21:55.685Z,3.00
2023-05-04T10:24:54.675Z,2.75
2023-05-04T10:27:56.742Z,2.92
2023-05-04T10:30:23.690Z,2.58
2023-05-04T10:32:57.411Z,2.78
2023-05-04T10:35:24.818Z,2.25
2023-05-04T10:37:55.630Z,2.92
2023-05-04T10:40:39.083Z,2.60
2023-05-04T10:43:07.308Z,3.08
2023-05-04T10:45:43.825Z,2.83
2023-05-04T10:48:10.738Z,2.72
2023-05-04T10:50:49.164Z,3.00
2023-05-04T10:53:17.679Z,2.95
2023-05-04T10:55:48.601Z,3.00
2023-05-04T10:58:19.013Z,2.70
2023-05-04T11:00:47.305Z,3.03
2023-05-04T11:03:15.180Z,2.72
2023-05-04T11:05:47.100Z,3.22
2023-05-04T11:08:17.670Z,2.95
2023-05-04T11:10:48.786Z,2.83
2023-05-04T11:13:18.513Z,2.72
2023-05-04T11:15:49.634Z,3.03
2023-05-04T11:18:30.915Z,3.40
2023-05-04T11:20:58.596Z,3.00
2023-05-04T11:23:25.870Z,2.80
2023-05-04T11:25:53.346Z,3.00
2023-05-04T11:28:20.251Z,3.00
2023-05-04T11:30:47.657Z,2.90
2023-05-04T11:33:15.662Z,3.30
2023-05-04T11:35:44.028Z,3.08
2023-05-04T11:38:13.110Z,2.90
2023-05-04T11:40:47.067Z,2.95
2023-05-04T11:43:14.389Z,3.65
2023-05-04T11:45:42.493Z,3.38
2023-05-04T11:48:09.725Z,2.72
2023-05-04T11:50:36.676Z,2.67
2023-05-04T11:53:14.035Z,2.80
2023-05-04T11:55:41.780Z,2.60
2023-05-04T11:58:10.248Z,2.60
2023-05-04T12:00:41.503Z,2.17
2023-05-04T12:03:15.605Z,2.72
2023-05-04T12:05:50.794Z,2.33
2023-05-04T12:08:32.918Z,1.92
2023-05-04T12:11:10.210Z,1.90
2023-05-04T12:13:37.483Z,2.45
2023-05-04T12:16:15.370Z,1.92
2023-05-04T12:18:42.789Z,2.55
2023-05-04T12:21:13.644Z,2.38
2023-05-04T12:23:41.288Z,2.20
2023-05-04T12:26:09.280Z,2.22
2023-05-04T12:28:36.854Z,2.38
2023-05-04T12:31:07.211Z,1.88
2023-05-04T12:33:34.302Z,2.25
2023-05-04T12:36:02.156Z,2.08
2023-05-04T12:38:29.499Z,2.90
2023-05-04T12:40:58.910Z,2.25
2023-05-04T12:43:25.676Z,1.60
2023-05-04T12:45:53.174Z,2.40
2023-05-04T12:48:23.395Z,2.90
2023-05-04T12:50:51.450Z,2.45
2023-05-04T12:53:18.936Z,2.40
2023-05-04T12:55:45.735Z,2.25
2023-05-04T12:58:12.728Z,2.53
2023-05-04T13:00:40.258Z,2.00
2023-05-04T13:03:07.654Z,2.40
2023-05-04T13:05:34.489Z,2.00
2023-05-04T13:08:01.522Z,2.25
2023-05-04T13:10:28.366Z,2.10
2023-05-04T13:12:55.073Z,2.05
2023-05-04T13:15:21.961Z,2.50
2023-05-04T13:17:48.848Z,2.15
2023-05-04T13:20:16.118Z,2.25
2023-05-04T13:22:46.431Z,2.03
2023-05-04T13:25:13.404Z,1.77
2023-05-04T13:27:40.207Z,2.20
2023-05-04T13:30:08.333Z,2.10
2023-05-04T13:32:36.292Z,2.30
2023-05-04T13:35:04.843Z,2.50
2023-05-04T13:37:31.675Z,2.30
2023-05-04T13:39:59.430Z,2.38
2023-05-04T13:42:26.562Z,2.75
2023-05-04T13:44:53.279Z,2.65
2023-05-04T13:47:20.043Z,2.78
2023-05-04T13:49:46.919Z,2.55
2023-05-04T13:52:13.934Z,2.50
2023-05-04T13:54:41.256Z,2.60
2023-05-04T13:57:07.931Z,2.65
2023-05-04T13:59:34.713Z,2.70
2023-05-04T14:02:01.632Z,2.72
2023-05-04T14:04:28.959Z,2.83
2023-05-04T14:06:56.900Z,2.33
2023-05-04T14:09:23.919Z,2.15
2023-05-04T14:11:50.720Z,2.88
2023-05-04T14:14:17.537Z,2.55
2023-05-04T14:16:44.297Z,2.28
2023-05-04T14:19:11.036Z,2.30
2023-05-04T14:21:37.747Z,2.80
2023-05-04T14:24:04.610Z,2.60
2023-05-04T14:26:32.792Z,2.40
2023-05-04T14:28:59.756Z,2.15
2023-05-04T14:31:26.525Z,2.40
2023-05-04T14:33:54.699Z,2.25
2023-05-04T14:36:22.764Z,2.70
2023-05-04T14:38:49.442Z,2.13
2023-05-04T14:41:16.167Z,1.90
2023-05-04T14:43:42.842Z,2.63
2023-05-04T14:46:09.800Z,2.33
2023-05-04T14:48:36.914Z,2.70
2023-05-04T14:51:03.774Z,2.30
2023-05-04T14:53:35.735Z,2.83
2023-05-04T14:56:03.715Z,2.40
2023-05-04T14:58:30.408Z,2.45
2023-05-04T15:00:57.103Z,2.70
2023-05-04T15:03:24.198Z,2.58
2023-05-04T15:05:51.011Z,2.72
2023-05-04T15:08:17.697Z,2.10
2023-05-04T15:10:44.389Z,2.70
2023-05-04T15:13:15.333Z,2.97
2023-05-04T15:15:42.263Z,2.22
2023-05-04T15:18:09.249Z,3.08
2023-05-04T15:20:38.928Z,2.33
2023-05-04T15:23:10.570Z,2.75
2023-05-04T15:25:41.114Z,2.28
2023-05-04T15:28:10.527Z,2.63
2023-05-04T15:30:38.197Z,2.53
2023-05-04T15:33:05.575Z,2.78
2023-05-04T15:35:33.432Z,2.72
2023-05-04T15:38:01.142Z,2.70
2023-05-04T15:40:28.243Z,2.80
2023-05-04T15:42:55.110Z,2.80
2023-05-04T15:45:22.196Z,2.92
2023-05-04T15:47:49.191Z,2.80
2023-05-04T15:50:16.095Z,2.50
2023-05-04T15:52:43.048Z,2.58
2023-05-04T15:55:24.676Z,2.80
2023-05-04T15:57:53.744Z,3.10
2023-05-04T16:00:21.088Z,2.45
2023-05-04T16:02:48.017Z,2.22
2023-05-04T16:05:14.828Z,2.25
2023-05-04T16:07:41.608Z,2.10
2023-05-04T16:10:09.445Z,2.40
2023-05-04T16:12:36.515Z,2.20
2023-05-04T16:15:03.353Z,2.40
2023-05-04T16:17:34.875Z,2.50
2023-05-04T16:20:03.145Z,2.50
2023-05-04T16:22:30.666Z,2.65
2023-05-04T16:24:57.631Z,2.72
2023-05-04T16:27:26.657Z,2.22
2023-05-04T16:29:53.648Z,2.35
2023-05-04T16:32:21.002Z,2.42
2023-05-04T16:34:47.879Z,2.22
2023-05-04T16:37:15.923Z,2.42
2023-05-04T16:39:42.610Z,2.30
2023-05-04T16:42:09.293Z,2.28
2023-05-04T16:44:36.001Z,2.45
2023-05-04T16:47:02.721Z,2.70
2023-05-04T16:49:29.766Z,2.45
2023-05-04T16:51:57.137Z,2.58
2023-05-04T16:54:24.080Z,2.78
2023-05-04T16:56:50.984Z,2.95
2023-05-04T16:59:17.653Z,2.90
2023-05-04T17:01:44.783Z,2.83
2023-05-04T17:04:11.594Z,2.35
2023-05-04T17:06:38.359Z,3.10
2023-05-04T17:09:05.297Z,4.68
2023-05-04T17:11:32.173Z,3.03
2023-05-04T17:13:59.671Z,3.33
2023-05-04T17:16:26.414Z,2.63
2023-05-04T17:18:53.072Z,2.50
2023-05-04T17:21:19.868Z,2.47
2023-05-04T17:23:46.633Z,2.40
2023-05-04T17:26:13.671Z,2.28
2023-05-04T17:28:40.273Z,2.40
2023-05-04T17:31:11.071Z,3.60
2023-05-04T17:33:37.935Z,5.40
2023-05-04T17:36:05.976Z,2.90
2023-05-04T17:38:32.905Z,2.38
2023-05-04T17:40:59.627Z,2.25
2023-05-04T17:43:26.626Z,2.17
2023-05-04T17:45:55.529Z,2.25
2023-05-04T17:48:23.857Z,2.03
2023-05-04T17:50:51.037Z,2.05
2023-05-04T17:53:18.174Z,2.10
2023-05-04T17:55:44.915Z,1.95
2023-05-04T17:58:11.574Z,1.95
2023-05-04T18:00:38.495Z,2.17
2023-05-04T18:03:05.326Z,1.73
2023-05-04T18:05:32.105Z,2.17
2023-05-04T18:07:59.062Z,1.88
2023-05-04T18:10:25.948Z,2.42
2023-05-04T18:12:52.734Z,2.00
2023-05-04T18:15:19.770Z,1.80
2023-05-04T18:17:46.509Z,2.03
2023-05-04T18:20:13.451Z,2.05
2023-05-04T18:22:40.889Z,2.20
2023-05-04T18:25:08.215Z,2.22
2023-05-04T18:27:35.684Z,2.00
2023-05-04T18:30:04.249Z,1.80
2023-05-04T18:32:31.280Z,1.98
2023-05-04T18:34:58.177Z,1.92
2023-05-04T18:37:25.370Z,2.13
2023-05-04T18:39:52.288Z,2.00
2023-05-04T18:42:18.977Z,1.92
2023-05-04T18:44:45.843Z,1.70
2023-05-04T18:47:12.503Z,1.90
2023-05-04T18:49:39.191Z,1.88
2023-05-04T18:52:06.069Z,1.65
2023-05-04T18:54:33.001Z,1.70
2023-05-04T18:56:59.730Z,1.73
2023-05-04T18:59:26.633Z,1.65
2023-05-04T19:01:55.575Z,2.47
2023-05-04T19:04:22.254Z,1.88
2023-05-04T19:06:51.647Z,2.00
2023-05-04T19:09:18.742Z,2.10
2023-05-04T19:11:46.736Z,1.63
2023-05-04T19:14:13.690Z,2.13
2023-05-04T19:16:40.581Z,1.77
2023-05-04T19:19:07.445Z,1.85
2023-05-04T19:21:34.199Z,1.70
2023-05-04T19:24:00.933Z,1.63
2023-05-04T19:26:27.603Z,1.85
2023-05-04T19:28:54.292Z,1.70
2023-05-04T19:31:20.985Z,1.70
2023-05-04T19:33:49.430Z,1.70
2023-05-04T19:36:17.058Z,1.90
2023-05-04T19:38:43.995Z,1.67
2023-05-04T19:41:10.720Z,1.90
2023-05-04T19:43:38.657Z,2.10
2023-05-04T19:46:05.703Z,2.42
2023-05-04T19:48:32.858Z,1.77
2023-05-04T19:50:59.641Z,2.10
2023-05-04T19:53:26.684Z,2.28
2023-05-04T19:55:54.005Z,2.17
2023-05-04T19:58:21.934Z,2.03
2023-05-04T20:00:48.797Z,2.20
2023-05-04T20:03:16.888Z,1.88
2023-05-04T20:05:43.634Z,2.28
2023-05-04T20:08:10.740Z,1.90
2023-05-04T20:10:37.487Z,1.95
2023-05-04T20:13:05.427Z,1.83
2023-05-04T20:15:32.256Z,1.80
2023-05-04T20:17:59.262Z,1.90
2023-05-04T20:20:26.666Z,2.00
2023-05-04T20:22:53.528Z,2.10
2023-05-04T20:25:20.264Z,1.80
2023-05-04T20:27:48.459Z,2.28
2023-05-04T20:30:15.371Z,1.83
2023-05-04T20:32:42.588Z,1.95
2023-05-04T20:35:09.707Z,2.17
2023-05-04T20:37:36.478Z,2.10
2023-05-04T20:40:03.671Z,2.10
2023-05-04T20:42:30.546Z,2.15
2023-05-04T20:44:57.327Z,2.08
2023-05-04T20:47:24.017Z,2.33
2023-05-04T20:49:50.716Z,2.17
2023-05-04T20:52:17.412Z,2.15
2023-05-04T20:54:44.114Z,1.88
2023-05-04T20:57:10.869Z,2.15
2023-05-04T20:59:37.494Z,2.00
2023-05-04T21:02:04.247Z,2.13
2023-05-04T21:04:30.943Z,2.17
2023-05-04T21:06:57.941Z,2.47
2023-05-04T21:09:24.631Z,2.28
2023-05-04T21:11:51.301Z,2.08
2023-05-04T21:14:17.981Z,2.17
2023-05-04T21:16:44.686Z,2.28
2023-05-04T21:19:11.303Z,2.42
2023-05-04T21:21:40.715Z,2.10
2023-05-04T21:24:14.183Z,2.28
2023-05-04T21:26:41.604Z,2.20
2023-05-04T21:29:14.977Z,2.55
2023-05-04T21:31:42.024Z,2.60
2023-05-04T21:34:08.907Z,2.70
2023-05-04T21:36:35.858Z,2.22
2023-05-04T21:39:02.494Z,2.15
2023-05-04T21:41:29.174Z,2.13
2023-05-04T21:43:56.235Z,2.65
2023-05-04T21:46:23.104Z,2.47
2023-05-04T21:48:51.645Z,2.15
2023-05-04T21:51:20.697Z,2.13
2023-05-04T21:53:47.930Z,2.30
2023-05-04T21:56:15.183Z,2.53
2023-05-04T21:58:42.090Z,2.30
2023-05-04T22:01:09.401Z,2.75
2023-05-04T22:03:36.263Z,2.63
2023-05-04T22:06:03.209Z,2.22
2023-05-04T22:08:30.249Z,3.00
2023-05-04T22:10:58.445Z,2.50
2023-05-04T22:13:25.732Z,2.45
2023-05-04T22:15:53.333Z,2.35
2023-05-04T22:18:20.550Z,2.35
2023-05-04T22:20:47.638Z,3.00
2023-05-04T22:23:14.793Z,2.42
2023-05-04T22:25:41.460Z,2.58
2023-05-04T22:28:08.241Z,2.53
2023-05-04T22:30:34.955Z,2.53
2023-05-04T22:33:01.877Z,2.45
2023-05-04T22:35:30.327Z,2.75
2023-05-04T22:37:57.082Z,2.38
2023-05-04T22:40:23.825Z,2.65
2023-05-04T22:42:50.565Z,2.65
2023-05-04T22:45:19.988Z,2.50
2023-05-04T22:47:47.063Z,2.80
2023-05-04T22:50:14.038Z,2.60
2023-05-04T22:52:41.123Z,3.25
2023-05-04T22:55:08.785Z,2.72
2023-05-04T22:57:35.798Z,3.00
2023-05-04T23:00:05.273Z,2.70
2023-05-04T23:02:32.244Z,2.80
2023-05-04T23:05:00.418Z,2.40
2023-05-04T23:07:27.173Z,2.72
2023-05-04T23:09:53.871Z,2.72
2023-05-04T23:12:20.552Z,2.78
2023-05-04T23:14:51.333Z,2.65
2023-05-04T23:17:18.320Z,2.47
2023-05-04T23:19:45.335Z,2.83
2023-05-04T23:22:12.017Z,2.90
2023-05-04T23:24:38.923Z,3.10
2023-05-04T23:27:05.714Z,3.30
2023-05-04T23:29:32.432Z,2.92
2023-05-04T23:31:59.200Z,2.83
2023-05-04T23:34:26.048Z,2.78
2023-05-04T23:36:55.645Z,2.60
2023-05-04T23:39:22.307Z,2.55
2023-05-04T23:41:49.066Z,2.72
2023-05-04T23:44:16.533Z,3.33
2023-05-04T23:46:43.417Z,3.25
2023-05-04T23:49:10.232Z,2.92
2023-05-04T23:51:36.879Z,3.00
2023-05-04T23:54:03.659Z,3.10
2023-05-04T23:56:31.451Z,2.83
2023-05-04T23:58:58.098Z,2.97
